Latest Weather Observations for Cape Willoughby

IDS60801

Issued at 5:41 pm CST Thursday 9 April 2020 (issued every 10 minutes, with the page automatically refreshed every 10 minutes)

About weather observations | Map of weather stations | Latest weather observations for SA | Other Formats
Station Details ID: 022803 Name: CAPE WILLOUGHBY Lat: -35.84 Lon: 138.13 Height: 55.0 m
Data from the previous 72 hours. | See also: Recent months at Cape Willoughby
Date/Time
CST
Temp
°C
App
Temp
°C
Dew
Point
°C
Rel
Hum
%
Delta-T
°C
Wind Press
QNH
hPa
Press
MSL
hPa
Rain since
9am
mm
Dir  Spd
km/h
Gust
km/h
Spd
kts
Gust
kts
09/05:30pm 15.5 14.4 11.9 79 1.9 SSE 9 13 5 7 1022.5 1022.4 0.0
09/05:00pm 15.7 15.0 11.9 78 2.1 SSE 7 11 4 6 1022.5 1022.4 0.0
09/04:30pm 16.0 14.9 11.8 76 2.3 SSE 9 13 5 7 1022.5 1022.4 0.0
09/04:00pm 16.3 15.6 11.9 75 2.4 SSE 7 11 4 6 1022.4 1022.3 0.0
09/03:30pm 16.4 15.3 11.8 74 2.5 SSE 9 11 5 6 1022.5 1022.4 0.0
09/03:00pm 16.3 15.1 11.5 73 2.6 SE 9 13 5 7 1022.6 1022.5 0.0
09/02:30pm 16.9 14.9 11.4 70 3.0 ESE 13 19 7 10 1022.8 1022.7 0.0
09/02:00pm 16.8 15.2 11.5 71 2.9 SE 11 15 6 8 1023.1 1023.0 0.0
09/01:30pm 16.5 15.2 11.4 72 2.7 SSE 9 13 5 7 1023.6 1023.5 0.0
09/01:00pm 16.6 15.4 11.5 72 2.8 SSE 9 13 5 7 1024.0 1023.9 0.0
09/12:30pm 16.4 14.9 10.7 69 3.0 SSE 9 13 5 7 1024.4 1024.3 0.0
09/12:00pm 16.5 15.0 10.6 68 3.1 SE 9 15 5 8 1024.9 1024.8 0.0
09/11:30am 16.0 14.9 10.5 70 2.9 SSE 7 13 4 7 1025.2 1025.1 0.0
09/11:00am 17.0 15.7 11.1 68 3.2 SE 9 13 5 7 1025.5 1025.4 0.0
09/10:30am 16.5 15.4 11.9 74 2.5 ESE 9 11 5 6 1025.8 1025.7 0.0
09/10:00am 16.1 15.2 11.3 73 2.6 SE 7 11 4 6 1025.9 1025.8 0.0
09/09:30am 15.9 14.3 11.5 75 2.4 ESE 11 17 6 9 1026.0 1025.9 0.0
09/09:00am 15.5 14.0 10.7 73 2.5 ESE 9 17 5 9 1026.0 1025.9 0.0
09/08:30am 15.4 12.8 10.6 73 2.5 ESE 15 20 8 11 1026.1 1026.0 0.0
09/08:00am 15.2 12.3 11.0 76 2.2 ESE 17 22 9 12 1025.9 1025.8 0.0
09/07:30am 14.9 12.3 10.7 76 2.2 ESE 15 19 8 10 1025.9 1025.8 0.0
09/07:00am 14.8 12.2 10.8 77 2.1 ESE 15 20 8 11 1025.8 1025.7 0.0
09/06:30am 14.5 12.6 10.5 77 2.1 SE 11 17 6 9 1025.7 1025.6 0.0
09/06:00am 14.6 12.1 11.0 79 1.9 SE 15 20 8 11 1025.7 1025.6 0.0
09/05:30am 14.6 11.7 11.0 79 1.9 SE 17 22 9 12 1025.7 1025.6 0.0
09/05:00am 14.5 11.6 10.9 79 1.9 SE 17 22 9 12 1025.6 1025.5 0.0
09/04:30am 14.5 11.6 11.1 80 1.8 SE 17 22 9 12 1025.5 1025.4 0.0
09/04:00am 14.5 11.7 11.3 81 1.7 SE 17 22 9 12 1025.5 1025.4 0.0
09/03:30am 14.5 11.7 11.3 81 1.7 SE 17 22 9 12 1025.6 1025.5 0.0
09/03:00am 14.6 11.4 11.4 81 1.7 SE 19 24 10 13 1025.8 1025.7 0.0
09/02:30am 14.9 11.3 11.7 81 1.7 SE 22 30 12 16 1026.0 1025.9 0.0
09/02:00am 14.8 11.1 11.4 80 1.8 ESE 22 30 12 16 1026.1 1026.0 0.0
09/01:30am 15.1 10.8 11.9 81 1.7 ESE 26 35 14 19 1026.2 1026.1 0.0
09/01:00am 15.0 10.2 11.8 81 1.7 ESE 28 35 15 19 1026.2 1026.1 0.0
09/12:30am 15.1 9.6 11.7 80 1.8 SE 32 37 17 20 1025.9 1025.8 0.0
09/12:00am 15.0 8.9 11.6 80 1.8 SE 35 43 19 23 1025.7 1025.6 0.0
 
Date/Time
CST
Temp
°C
App
Temp
°C
Dew
Point
°C
Rel
Hum
%
Delta-T
°C
Wind Press
QNH
hPa
Press
MSL
hPa
Rain since
9am
mm
Dir  Spd
km/h
Gust
km/h
Spd
kts
Gust
kts
08/11:30pm 15.0 8.9 11.6 80 1.8 SE 35 43 19 23 1025.8 1025.7 0.0
08/11:00pm 15.1 8.7 11.9 81 1.7 SE 37 46 20 25 1026.0 1025.9 0.0
08/10:30pm 15.1 8.6 11.7 80 1.8 SE 37 46 20 25 1026.1 1026.0 0.0
08/10:00pm 15.1 8.6 11.7 80 1.8 SE 37 46 20 25 1026.1 1026.0 0.0
08/09:30pm 15.3 8.9 11.9 80 1.8 SE 37 46 20 25 1026.0 1025.9 0.0
08/09:00pm 15.4 9.1 12.2 81 1.7 SSE 37 46 20 25 1025.8 1025.7 0.0
08/08:30pm 15.6 10.1 12.5 82 1.7 SE 33 43 18 23 1025.5 1025.4 0.0
08/08:00pm 15.4 9.9 12.3 82 1.7 SSE 33 43 18 23 1025.4 1025.3 0.0
08/07:30pm 15.2 9.2 12.0 81 1.7 SE 35 43 19 23 1025.3 1025.2 0.0
08/07:00pm 15.3 9.9 12.1 81 1.7 SSE 32 39 17 21 1025.1 1025.0 0.0
08/06:30pm 15.2 9.4 11.4 78 2.0 SE 33 39 18 21 1025.0 1024.9 0.0
08/06:00pm 15.1 10.2 11.3 78 2.0 SSE 28 35 15 19 1025.0 1024.9 0.0
08/05:30pm 15.2 10.4 11.6 79 1.9 SSE 28 35 15 19 1024.9 1024.8 0.0
08/05:00pm 15.3 10.8 11.5 78 2.0 SSE 26 33 14 18 1024.7 1024.6 0.0
08/04:30pm 15.2 9.9 11.4 78 2.0 SSE 30 35 16 19 1024.7 1024.6 0.0
08/04:00pm 15.6 11.2 11.8 78 2.1 SSE 26 33 14 18 1024.9 1024.8 0.0
08/03:30pm 15.3 10.3 10.9 75 2.3 SSE 28 35 15 19 1024.9 1024.8 0.0
08/03:00pm 15.4 10.0 11.0 75 2.3 SE 30 35 16 19 1024.9 1024.8 0.0
08/02:30pm 15.6 10.2 11.0 74 2.4 SE 30 39 16 21 1024.9 1024.8 0.0
08/02:00pm 16.2 11.6 11.2 72 2.7 SE 26 32 14 17 1025.1 1025.0 0.0
08/01:30pm 15.6 11.3 10.6 72 2.6 SE 24 32 13 17 1025.4 1025.3 0.0
08/01:00pm 15.8 11.4 10.3 70 2.9 SE 24 32 13 17 1025.7 1025.6 0.0
08/12:30pm 16.0 11.1 10.1 68 3.1 SE 26 33 14 18 1026.0 1025.9 0.0
08/12:00pm 15.7 11.0 9.1 65 3.4 ESE 24 32 13 17 1026.3 1026.2 0.0
08/11:30am 16.2 11.3 9.8 66 3.3 ESE 26 35 14 19 1026.6 1026.5 0.0
08/11:00am 15.5 10.0 9.2 66 3.2 ESE 28 39 15 21 1026.6 1026.5 0.0
08/10:30am 15.0 9.1 9.1 68 3.0 ESE 30 41 16 22 1026.7 1026.6 0.0
08/10:00am 14.7 8.3 8.4 66 3.2 ESE 32 39 17 21 1026.7 1026.6 0.0
08/09:30am 14.7 7.1 7.7 63 3.5 SE 37 46 20 25 1026.8 1026.7 0.0
08/09:00am 14.7 9.3 8.2 65 3.2 ESE 26 33 14 18 1026.6 1026.5 0.0
08/08:30am 14.5 8.7 8.0 65 3.2 SE 28 37 15 20 1026.4 1026.3 0.0
08/08:00am 14.4 8.3 8.4 67 3.0 SE 30 37 16 20 1026.0 1025.9 0.0
08/07:30am 14.4 8.0 8.6 68 2.9 SE 32 37 17 20 1025.6 1025.5 0.0
08/07:00am 14.4 9.3 7.7 64 3.3 SE 24 32 13 17 1025.3 1025.2 0.0
08/06:30am 14.4 8.8 8.8 69 2.8 ESE 28 35 15 19 1025.0 1024.9 0.0
08/06:00am 14.4 8.5 9.0 70 2.7 ESE 30 37 16 20 1024.8 1024.7 0.0
08/05:30am 14.4 8.0 9.2 71 2.6 SE 33 41 18 22 1024.5 1024.4 0.0
08/05:00am 14.5 7.8 9.7 73 2.5 SE 35 43 19 23 1024.1 1024.0 0.0
08/04:30am 14.4 7.6 9.4 72 2.6 SE 35 44 19 24 1023.9 1023.8 0.0
08/04:00am 14.8 8.3 10.4 75 2.3 SE 35 41 19 22 1023.8 1023.7 0.0
08/03:30am 14.6 7.9 9.6 72 2.6 SE 35 44 19 24 1023.8 1023.7 0.0
08/03:00am 14.8 8.1 9.8 72 2.6 SE 35 41 19 22 1023.9 1023.8 0.0
08/02:30am 14.8 8.8 10.0 73 2.5 SE 32 39 17 21 1024.1 1024.0 0.0
08/02:00am 14.7 8.3 9.5 71 2.7 SE 33 39 18 21 1024.3 1024.2 0.0
08/01:30am 14.8 8.1 9.8 72 2.6 SE 35 41 19 22 1024.0 1023.9 0.0
08/01:00am 14.8 8.6 9.4 70 2.8 ESE 32 43 17 23 1024.0 1023.9 0.0
08/12:30am 14.9 8.3 9.9 72 2.6 SE 35 43 19 23 1023.9 1023.8 0.0
08/12:00am 15.0 9.4 10.2 73 2.5 ESE 30 37 16 20 1024.0 1023.9 0.0
 
Date/Time
CST
Temp
°C
App
Temp
°C
Dew
Point
°C
Rel
Hum
%
Delta-T
°C
Wind Press
QNH
hPa
Press
MSL
hPa
Rain since
9am
mm
Dir  Spd
km/h
Gust
km/h
Spd
kts
Gust
kts
07/11:30pm 14.9 8.7 10.1 73 2.5 SE 33 43 18 23 1024.0 1023.9 0.0
07/11:00pm 15.0 8.8 10.0 72 2.6 SE 33 41 18 22 1024.2 1024.1 0.0
07/10:30pm 15.0 9.0 10.0 72 2.6 SE 32 39 17 21 1024.4 1024.3 0.0
07/10:00pm 14.9 8.7 9.9 72 2.6 SE 33 39 18 21 1024.4 1024.3 0.0
07/09:30pm 14.7 8.3 9.5 71 2.7 SE 33 41 18 22 1024.5 1024.4 0.0
07/09:00pm 14.7 8.5 9.9 73 2.5 SE 33 41 18 22 1023.9 1023.8 0.0
07/08:30pm 14.8 8.6 10.2 74 2.4 SE 33 41 18 22 1024.0 1023.9 0.0
07/08:00pm 14.8 8.8 10.0 73 2.5 SE 32 41 17 22 1023.7 1023.6 0.0
07/07:30pm 14.9 8.6 9.7 71 2.7 SSE 33 41 18 22 1023.7 1023.6 0.0
07/07:00pm 14.8 9.2 10.0 73 2.5 SE 30 35 16 19 1023.4 1023.3 0.0
07/06:30pm 14.9 9.1 10.7 76 2.2 SE 32 37 17 20 1023.1 1023.0 0.0
07/06:00pm 14.9 9.6 11.1 78 2.0 SE 30 39 16 21 1022.7 1022.6 0.0
07/05:30pm 15.1 10.1 10.9 76 2.2 SSE 28 37 15 20 1022.7 1022.6 0.0
07/05:00pm 15.3 9.8 10.5 73 2.5 SSE 30 35 16 19 1022.5 1022.4 0.0
07/04:30pm 15.7 10.9 10.2 70 2.9 SSE 26 33 14 18 1022.6 1022.5 0.0
07/04:00pm 15.7 10.8 9.8 68 3.1 SSE 26 33 14 18 1022.7 1022.6 0.0
07/03:30pm 15.9 11.8 10.0 68 3.1 SSE 22 30 12 16 1022.9 1022.8 0.0
07/03:00pm 16.5 12.5 10.6 68 3.1 SE 22 28 12 15 1022.9 1022.8 0.0
07/02:30pm 16.6 12.2 10.5 67 3.2 SE 24 30 13 16 1022.9 1022.8 0.0
07/02:00pm 16.1 12.1 10.6 70 2.9 SE 22 28 12 15 1023.0 1022.9 0.0
07/01:30pm 16.3 12.0 10.6 69 3.0 SE 24 28 13 15 1023.2 1023.1 0.0
07/01:00pm 16.6 12.3 10.7 68 3.2 SE 24 30 13 16 1023.5 1023.4 0.0
07/12:30pm 16.2 11.5 10.7 70 2.9 SE 26 32 14 17 1023.8 1023.7 0.0
07/12:00pm 16.9 12.3 11.0 68 3.2 SE 26 32 14 17 1024.1 1024.0 0.0
07/11:30am 16.9 13.7 11.2 69 3.1 SE 19 26 10 14 1024.3 1024.2 0.0
07/11:00am 16.8 13.4 10.4 66 3.4 SE 19 26 10 14 1024.4 1024.3 0.0
07/10:30am 16.2 12.7 10.3 68 3.1 SE 19 24 10 13 1024.5 1024.4 0.0
07/10:00am 17.1 13.9 11.4 69 3.1 SE 19 26 10 14 1024.7 1024.6 0.0
07/09:30am 16.0 12.6 10.5 70 2.9 SE 19 22 10 12 1024.6 1024.5 0.0
07/09:00am 15.9 12.6 10.9 72 2.7 SE 19 24 10 13 1024.4 1024.3 1.0
07/08:30am 15.4 12.1 10.8 74 2.4 SE 19 24 10 13 1024.3 1024.2 1.0
07/08:00am 15.3 11.6 11.5 78 2.0 SE 22 28 12 15 1024.0 1023.9 1.0
07/07:30am 15.4 12.4 11.8 79 1.9 SE 19 24 10 13 1023.7 1023.6 1.0
07/07:00am 15.4 12.7 11.6 78 2.1 SE 17 20 9 11 1023.4 1023.3 1.0
07/06:30am 15.4 12.7 11.8 79 1.9 SE 17 20 9 11 1023.2 1023.1 1.0
07/06:00am 15.4 13.1 11.8 79 1.9 ESE 15 20 8 11 1023.0 1022.9 1.0
07/05:30am 15.4 13.1 11.8 79 1.9 ESE 15 20 8 11 1022.7 1022.6 1.0
07/05:00am 15.3 13.0 11.7 79 1.9 ESE 15 19 8 10 1022.6 1022.5 1.0
07/04:30am 15.2 12.5 11.8 80 1.8 ESE 17 20 9 11 1022.4 1022.3 1.0
07/04:00am 15.1 12.0 11.7 80 1.8 ESE 19 22 10 12 1022.3 1022.2 1.0
07/03:30am 15.3 12.4 12.2 82 1.7 ESE 19 22 10 12 1022.2 1022.1 1.0
07/03:00am 15.4 12.3 12.3 82 1.7 ESE 20 26 11 14 1022.4 1022.3 1.0
07/02:30am 15.3 12.2 12.2 82 1.7 SE 20 24 11 13 1022.5 1022.4 1.0
07/02:00am 15.3 12.3 12.4 83 1.6 SE 20 24 11 13 1022.7 1022.6 1.0
07/01:30am 15.3 12.5 12.6 84 1.5 SE 19 22 10 12 1022.8 1022.7 1.0
07/01:00am 15.4 12.6 12.7 84 1.5 SE 19 22 10 12 1022.9 1022.8 1.0
07/12:30am 15.2 12.7 12.3 83 1.6 SE 17 20 9 11 1022.9 1022.8 1.0
07/12:00am 15.3 12.9 12.6 84 1.5 SE 17 20 9 11 1023.0 1022.9 1.0
 
Date/Time
CST
Temp
°C
App
Temp
°C
Dew
Point
°C
Rel
Hum
%
Delta-T
°C
Wind Press
QNH
hPa
Press
MSL
hPa
Rain since
9am
mm
Dir  Spd
km/h
Gust
km/h
Spd
kts
Gust
kts
06/11:30pm 15.5 13.9 12.8 84 1.5 SSE 13 17 7 9 1023.4 1023.3 1.0
06/11:00pm 15.4 14.6 12.9 85 1.4 SE 9 13 5 7 1023.6 1023.5 1.0
06/10:30pm 15.4 14.6 12.9 85 1.4 SE 9 11 5 6 1023.7 1023.6 1.0
06/10:00pm 15.3 14.0 12.6 84 1.5 SSE 11 15 6 8 1023.7 1023.6 1.0
06/09:30pm 15.3 13.7 12.8 85 1.4 SE 13 17 7 9 1023.4 1023.3 1.0
06/09:00pm 15.4 14.2 12.9 85 1.4 SSE 11 17 6 9 1023.3 1023.2 1.0
06/08:30pm 15.4 14.6 12.9 85 1.4 SSE 9 15 5 8 1023.3 1023.2 1.0
06/08:00pm 15.5 14.4 13.2 86 1.3 SSE 11 15 6 8 1023.3 1023.2 1.0
06/07:30pm 15.3 14.5 13.0 86 1.3 SSE 9 13 5 7 1022.9 1022.8 1.0
06/07:00pm 15.3 14.5 13.0 86 1.3 SSE 9 13 5 7 1022.7 1022.6 1.0
06/06:30pm 15.2 14.0 12.9 86 1.3 SSE 11 15 6 8 1022.7 1022.6 1.0
06/06:00pm 15.2 15.6 13.6 90 0.9 ESE 4 11 2 6 1022.4 1022.3 1.0

Other formats

Comma delimited format used in spreadsheet applications
http://www.bom.gov.au/fwo/IDS60801/IDS60801.94822.axf

JavaScript Object Notation format (JSON) in row-major order
http://www.bom.gov.au/fwo/IDS60801/IDS60801.94822.json

Data quality

Most of these data are generated automatically and are frequently updated. Quality checks on data are not normally performed. It is possible for incorrect values to appear. Refer to information at About Latest Weather Observations and please check the disclaimer before using these data.